createdAt,value
2023-05-13T00:01:59.865Z,86.70
2023-05-13T00:04:26.753Z,86.60
2023-05-13T00:06:53.647Z,86.70
2023-05-13T00:09:20.476Z,87.00
2023-05-13T00:11:47.331Z,86.90
2023-05-13T00:14:14.426Z,87.20
2023-05-13T00:16:41.563Z,88.50
2023-05-13T00:19:08.727Z,87.60
2023-05-13T00:21:35.639Z,87.90
2023-05-13T00:24:02.603Z,88.10
2023-05-13T00:26:29.685Z,88.50
2023-05-13T00:28:56.524Z,88.30
2023-05-13T00:31:23.481Z,88.40
2023-05-13T00:33:50.401Z,88.10
2023-05-13T00:36:17.492Z,88.00
2023-05-13T00:38:44.356Z,87.80
2023-05-13T00:41:12.550Z,88.00
2023-05-13T00:43:39.459Z,87.90
2023-05-13T00:46:06.607Z,87.40
2023-05-13T00:48:34.404Z,87.10
2023-05-13T00:51:01.307Z,87.00
2023-05-13T00:53:28.286Z,86.80
2023-05-13T00:55:55.125Z,86.40
2023-05-13T00:58:22.011Z,86.30
2023-05-13T01:01:26.918Z,86.10
2023-05-13T01:04:07.477Z,86.00
2023-05-13T01:07:07.421Z,86.00
2023-05-13T01:09:55.157Z,85.90
2023-05-13T01:12:32.969Z,86.10
2023-05-13T01:15:15.101Z,86.40
2023-05-13T01:18:19.149Z,86.70
2023-05-13T01:20:46.376Z,86.60
2023-05-13T01:23:13.348Z,86.70
2023-05-13T01:25:40.787Z,86.70
2023-05-13T01:28:09.400Z,86.70
2023-05-13T01:30:37.088Z,86.40
2023-05-13T01:33:04.310Z,86.70
2023-05-13T01:35:32.537Z,86.90
2023-05-13T01:38:01.491Z,86.90
2023-05-13T01:40:32.716Z,87.00
2023-05-13T01:43:00.607Z,87.30
2023-05-13T01:45:31.055Z,87.50
2023-05-13T01:47:58.201Z,87.60
2023-05-13T01:50:26.232Z,87.80
2023-05-13T01:52:53.153Z,87.90
2023-05-13T01:55:20.117Z,88.00
2023-05-13T01:57:47.098Z,88.20
2023-05-13T02:00:14.827Z,88.30
2023-05-13T02:02:41.811Z,88.40
2023-05-13T02:05:09.260Z,88.30
2023-05-13T02:07:36.152Z,88.70
2023-05-13T02:10:03.192Z,89.00
2023-05-13T02:12:30.010Z,89.00
2023-05-13T02:14:56.922Z,89.30
2023-05-13T02:17:23.823Z,89.30
2023-05-13T02:19:50.718Z,89.20
2023-05-13T02:22:17.593Z,89.50
2023-05-13T02:24:44.485Z,89.60
2023-05-13T02:27:12.934Z,89.70
2023-05-13T02:29:39.901Z,90.00
2023-05-13T02:32:07.603Z,90.10
2023-05-13T02:34:34.662Z,90.20
2023-05-13T02:37:03.835Z,90.30
2023-05-13T02:39:30.672Z,90.50
2023-05-13T02:41:57.956Z,90.60
2023-05-13T02:44:24.825Z,90.50
2023-05-13T02:46:51.769Z,90.50
2023-05-13T02:49:18.676Z,90.50
2023-05-13T02:51:45.589Z,90.30
2023-05-13T02:54:12.458Z,90.30
2023-05-13T02:56:39.280Z,90.40
2023-05-13T02:59:06.090Z,90.50
2023-05-13T03:01:33.021Z,90.60
2023-05-13T03:03:59.853Z,90.80
2023-05-13T03:06:26.945Z,91.00
2023-05-13T03:08:53.796Z,91.10
2023-05-13T03:11:21.201Z,91.10
2023-05-13T03:13:48.030Z,91.10
2023-05-13T03:16:14.935Z,91.20
2023-05-13T03:18:41.917Z,91.40
2023-05-13T03:21:08.883Z,91.80
2023-05-13T03:23:35.968Z,92.00
2023-05-13T03:26:03.021Z,91.90
2023-05-13T03:28:29.838Z,91.70
2023-05-13T03:30:56.678Z,92.00
2023-05-13T03:33:23.556Z,91.50
2023-05-13T03:35:50.471Z,91.30
2023-05-13T03:38:17.274Z,91.20
2023-05-13T03:40:44.229Z,91.10
2023-05-13T03:43:11.156Z,91.10
2023-05-13T03:45:38.057Z,91.00
2023-05-13T03:48:05.445Z,90.80
2023-05-13T03:50:32.265Z,90.70
2023-05-13T03:52:59.079Z,90.60
2023-05-13T03:55:26.031Z,90.50
2023-05-13T03:57:52.867Z,90.30
2023-05-13T04:00:19.977Z,90.30
2023-05-13T04:02:47.009Z,90.10
2023-05-13T04:05:14.280Z,89.80
2023-05-13T04:07:41.623Z,90.00
2023-05-13T04:10:18.025Z,89.80
2023-05-13T04:12:44.929Z,90.50
2023-05-13T04:15:11.855Z,90.30
2023-05-13T04:17:38.697Z,90.50
2023-05-13T04:20:06.538Z,90.30
2023-05-13T04:22:34.692Z,90.40
2023-05-13T04:25:01.543Z,90.50
2023-05-13T04:27:28.465Z,90.40
2023-05-13T04:29:55.452Z,90.40
2023-05-13T04:32:22.393Z,90.40
2023-05-13T04:34:49.655Z,90.40
2023-05-13T04:37:17.089Z,90.30
2023-05-13T04:39:46.651Z,90.20
2023-05-13T04:42:15.260Z,90.20
2023-05-13T04:44:42.746Z,90.00
2023-05-13T04:47:09.555Z,90.00
2023-05-13T04:49:36.408Z,89.80
2023-05-13T04:52:05.903Z,90.00
2023-05-13T04:54:35.365Z,90.00
2023-05-13T04:57:03.082Z,89.80
2023-05-13T04:59:30.008Z,89.30
2023-05-13T05:01:56.928Z,89.20
2023-05-13T05:04:25.407Z,89.20
2023-05-13T05:06:52.290Z,89.20
2023-05-13T05:09:19.149Z,89.50
2023-05-13T05:11:46.229Z,89.60
2023-05-13T05:14:13.061Z,89.10
2023-05-13T05:16:39.864Z,88.50
2023-05-13T05:19:06.813Z,88.00
2023-05-13T05:21:33.719Z,87.80
2023-05-13T05:24:01.895Z,87.50
2023-05-13T05:26:28.722Z,87.30
2023-05-13T05:28:55.524Z,87.10
2023-05-13T05:31:22.441Z,86.90
2023-05-13T05:33:49.385Z,86.40
2023-05-13T05:36:16.220Z,85.60
2023-05-13T05:38:43.230Z,85.90
2023-05-13T05:41:10.079Z,85.20
2023-05-13T05:43:36.885Z,84.40
2023-05-13T05:46:04.975Z,83.80
2023-05-13T05:48:34.370Z,83.60
2023-05-13T05:51:01.550Z,83.70
2023-05-13T05:53:28.407Z,81.30
2023-05-13T05:55:55.277Z,80.60
2023-05-13T05:58:22.225Z,80.10
2023-05-13T06:00:49.354Z,79.40
2023-05-13T06:03:16.446Z,80.30
2023-05-13T06:05:43.482Z,80.30
2023-05-13T06:08:10.324Z,80.20
2023-05-13T06:10:38.430Z,78.50
2023-05-13T06:13:05.361Z,78.30
2023-05-13T06:15:32.651Z,77.30
2023-05-13T06:17:59.894Z,77.00
2023-05-13T06:20:26.844Z,77.10
2023-05-13T06:22:56.755Z,77.60
2023-05-13T06:25:23.629Z,77.00
2023-05-13T06:27:50.514Z,77.60
2023-05-13T06:30:17.305Z,76.60
2023-05-13T06:32:53.594Z,76.40
2023-05-13T06:35:24.476Z,75.60
2023-05-13T06:37:51.306Z,76.40
2023-05-13T06:40:18.123Z,77.20
2023-05-13T06:42:44.967Z,76.00
2023-05-13T06:45:11.939Z,76.60
2023-05-13T06:47:38.845Z,76.90
2023-05-13T06:50:06.340Z,74.20
2023-05-13T06:52:33.202Z,75.00
2023-05-13T06:55:00.006Z,74.50
2023-05-13T06:57:38.810Z,73.50
2023-05-13T07:00:09.727Z,73.30
2023-05-13T07:02:36.667Z,74.20
2023-05-13T07:05:03.955Z,74.40
2023-05-13T07:07:30.865Z,75.00
2023-05-13T07:09:57.761Z,73.10
2023-05-13T07:12:25.006Z,73.30
2023-05-13T07:14:52.181Z,73.50
2023-05-13T07:17:19.045Z,73.30
2023-05-13T07:19:45.925Z,70.10
2023-05-13T07:22:12.985Z,70.30
2023-05-13T07:24:41.097Z,70.60
2023-05-13T07:27:07.939Z,71.00
2023-05-13T07:29:34.947Z,69.70
2023-05-13T07:32:06.551Z,70.50
2023-05-13T07:34:33.549Z,68.90
2023-05-13T07:37:00.532Z,67.60
2023-05-13T07:39:27.870Z,68.50
2023-05-13T07:41:57.629Z,68.40
2023-05-13T07:44:24.683Z,67.80
2023-05-13T07:46:53.566Z,65.90
2023-05-13T07:49:21.608Z,65.00
2023-05-13T07:51:48.745Z,63.70
2023-05-13T07:54:15.626Z,65.00
2023-05-13T07:56:44.234Z,65.10
2023-05-13T07:59:11.249Z,66.00
2023-05-13T08:01:38.213Z,66.00
2023-05-13T08:04:05.488Z,65.60
2023-05-13T08:06:33.175Z,65.40
2023-05-13T08:09:00.275Z,65.80
2023-05-13T08:11:28.679Z,63.30
2023-05-13T08:13:55.819Z,63.70
2023-05-13T08:16:22.874Z,61.70
2023-05-13T08:18:49.842Z,62.40
2023-05-13T08:21:16.773Z,63.10
2023-05-13T08:23:45.803Z,64.60
2023-05-13T08:26:13.927Z,62.10
2023-05-13T08:28:42.362Z,65.40
2023-05-13T08:31:12.713Z,62.00
2023-05-13T08:33:41.717Z,62.10
2023-05-13T08:36:10.179Z,63.50
2023-05-13T08:38:37.250Z,63.80
2023-05-13T08:41:06.251Z,63.50
2023-05-13T08:43:34.144Z,64.00
2023-05-13T08:46:08.942Z,63.50
2023-05-13T08:48:38.535Z,62.80
2023-05-13T08:51:06.500Z,64.90
2023-05-13T08:53:35.910Z,65.00
2023-05-13T08:56:03.486Z,64.70
2023-05-13T08:58:30.583Z,65.00
2023-05-13T09:00:58.436Z,64.00
2023-05-13T09:03:28.886Z,63.90
2023-05-13T09:05:56.401Z,60.40
2023-05-13T09:08:23.219Z,62.70
2023-05-13T09:10:50.641Z,62.70
2023-05-13T09:13:18.639Z,64.40
2023-05-13T09:15:45.992Z,63.80
2023-05-13T09:18:18.679Z,64.00
2023-05-13T09:20:46.394Z,63.80
2023-05-13T09:23:13.967Z,63.00
2023-05-13T09:25:41.195Z,62.30
2023-05-13T09:28:08.631Z,62.40
2023-05-13T09:30:40.226Z,63.70
2023-05-13T09:33:19.832Z,61.10
2023-05-13T09:35:53.032Z,63.80
2023-05-13T09:38:25.623Z,65.70
2023-05-13T09:40:58.526Z,62.30
2023-05-13T09:43:31.085Z,60.60
2023-05-13T09:46:05.601Z,60.80
2023-05-13T09:48:34.073Z,60.20
2023-05-13T09:51:01.406Z,61.00
2023-05-13T09:53:29.156Z,60.60
2023-05-13T09:55:58.712Z,62.00
2023-05-13T09:58:30.902Z,62.80
2023-05-13T10:00:58.590Z,59.30
2023-05-13T10:03:28.539Z,60.80
2023-05-13T10:05:58.710Z,60.90
2023-05-13T10:08:28.365Z,61.10
2023-05-13T10:10:56.556Z,63.20
2023-05-13T10:13:25.102Z,63.20
2023-05-13T10:15:54.723Z,61.20
2023-05-13T10:18:24.227Z,60.20
2023-05-13T10:20:53.740Z,59.50
2023-05-13T10:23:23.973Z,60.20
2023-05-13T10:25:53.073Z,60.50
2023-05-13T10:28:20.589Z,60.50
2023-05-13T10:30:54.018Z,61.00
2023-05-13T10:33:21.944Z,62.20
2023-05-13T10:36:19.969Z,62.70
2023-05-13T10:39:36.609Z,62.10
2023-05-13T10:42:03.555Z,62.90
2023-05-13T10:44:32.920Z,64.00
2023-05-13T10:46:59.858Z,64.60
2023-05-13T10:49:34.796Z,63.20
2023-05-13T10:52:15.250Z,64.00
2023-05-13T10:54:42.212Z,64.70
2023-05-13T10:57:10.509Z,63.60
2023-05-13T11:00:18.693Z,63.80
2023-05-13T11:02:45.808Z,60.20
2023-05-13T11:05:21.226Z,60.80
2023-05-13T11:07:58.065Z,61.80
2023-05-13T11:10:30.589Z,61.20
2023-05-13T11:13:38.856Z,63.00
2023-05-13T11:16:07.900Z,61.90
2023-05-13T11:18:35.437Z,58.80
2023-05-13T11:21:07.536Z,57.90
2023-05-13T11:23:57.114Z,56.20
2023-05-13T11:26:24.253Z,57.10
2023-05-13T11:29:03.530Z,57.60
2023-05-13T11:31:51.010Z,57.00
2023-05-13T11:34:21.555Z,54.70
2023-05-13T11:37:11.034Z,54.60
2023-05-13T11:39:42.130Z,54.10
2023-05-13T11:42:10.748Z,55.70
2023-05-13T11:44:46.982Z,57.00
2023-05-13T11:47:14.076Z,57.70
2023-05-13T11:49:44.230Z,58.20
2023-05-13T11:52:19.976Z,58.00
2023-05-13T11:54:53.804Z,56.90
2023-05-13T11:57:32.788Z,55.80
2023-05-13T12:00:06.677Z,55.40
2023-05-13T12:02:42.643Z,57.70
2023-05-13T12:05:12.060Z,58.20
2023-05-13T12:07:42.528Z,56.60
2023-05-13T12:10:10.014Z,57.70
2023-05-13T12:12:40.369Z,59.10
2023-05-13T12:15:11.595Z,59.30
2023-05-13T12:17:39.104Z,59.10
2023-05-13T12:20:16.711Z,57.80
2023-05-13T12:22:43.553Z,57.70
2023-05-13T12:25:38.313Z,58.70
2023-05-13T12:28:17.335Z,56.50
2023-05-13T12:30:55.938Z,56.10
2023-05-13T12:33:24.984Z,55.30
2023-05-13T12:35:55.682Z,56.20
2023-05-13T12:38:24.754Z,57.60
2023-05-13T12:40:53.074Z,57.00
2023-05-13T12:43:21.008Z,57.80
2023-05-13T12:45:54.074Z,58.50
2023-05-13T12:48:25.007Z,57.70
2023-05-13T12:50:51.855Z,57.90
2023-05-13T12:53:18.660Z,59.10
2023-05-13T12:55:45.517Z,58.20
2023-05-13T12:58:13.241Z,59.20
2023-05-13T13:00:41.880Z,58.40
2023-05-13T13:03:08.939Z,58.70
2023-05-13T13:05:36.022Z,57.30
2023-05-13T13:08:07.480Z,55.50
2023-05-13T13:10:34.801Z,57.10
2023-05-13T13:13:01.908Z,62.80
2023-05-13T13:15:28.821Z,64.20
2023-05-13T13:17:55.827Z,64.70
2023-05-13T13:20:22.833Z,59.40
2023-05-13T13:22:49.710Z,57.60
2023-05-13T13:25:16.708Z,58.20
2023-05-13T13:27:43.560Z,55.20
2023-05-13T13:30:11.076Z,55.40
2023-05-13T13:32:38.011Z,55.30
2023-05-13T13:35:05.706Z,54.50
2023-05-13T13:37:32.696Z,57.60
2023-05-13T13:39:59.586Z,61.10
2023-05-13T13:42:40.299Z,61.30
2023-05-13T13:45:11.612Z,61.30
2023-05-13T13:47:38.636Z,64.20
2023-05-13T13:50:06.685Z,63.60
2023-05-13T13:52:33.599Z,62.90
2023-05-13T13:55:00.663Z,62.20
2023-05-13T13:57:27.584Z,62.50
2023-05-13T13:59:54.432Z,60.80
2023-05-13T14:02:21.916Z,61.20
2023-05-13T14:04:48.867Z,62.60
2023-05-13T14:07:15.835Z,59.70
2023-05-13T14:09:42.665Z,58.30
2023-05-13T14:12:09.559Z,58.70
2023-05-13T14:14:36.362Z,58.70
2023-05-13T14:17:03.483Z,57.50
2023-05-13T14:19:30.350Z,57.80
2023-05-13T14:21:57.153Z,59.10
2023-05-13T14:24:24.459Z,57.70
2023-05-13T14:26:51.386Z,60.20
2023-05-13T14:29:18.358Z,58.40
2023-05-13T14:31:45.291Z,58.00
2023-05-13T14:34:12.292Z,57.90
2023-05-13T14:36:39.157Z,59.40
2023-05-13T14:39:05.988Z,59.50
2023-05-13T14:41:32.918Z,60.20
2023-05-13T14:44:01.018Z,60.30
2023-05-13T14:46:28.152Z,62.00
2023-05-13T14:48:55.020Z,62.70
2023-05-13T14:51:21.895Z,63.80
2023-05-13T14:53:48.672Z,64.10
2023-05-13T14:56:15.692Z,64.50
2023-05-13T14:58:42.611Z,64.10
2023-05-13T15:01:09.465Z,64.30
2023-05-13T15:03:36.636Z,62.70
2023-05-13T15:06:04.360Z,65.10
2023-05-13T15:08:31.367Z,65.60
2023-05-13T15:10:59.890Z,65.20
2023-05-13T15:13:28.604Z,65.20
2023-05-13T15:15:56.009Z,65.50
2023-05-13T15:18:22.974Z,64.20
2023-05-13T15:20:49.836Z,70.40
2023-05-13T15:23:16.646Z,71.60
2023-05-13T15:25:43.585Z,75.60
2023-05-13T15:28:10.737Z,71.90
2023-05-13T15:30:38.475Z,67.20
2023-05-13T15:33:05.532Z,70.90
2023-05-13T15:35:32.584Z,68.90
2023-05-13T15:37:59.875Z,68.20
2023-05-13T15:40:26.838Z,64.70
2023-05-13T15:42:53.628Z,66.70
2023-05-13T15:45:20.776Z,64.80
2023-05-13T15:47:47.709Z,64.50
2023-05-13T15:50:14.753Z,65.40
2023-05-13T15:52:41.685Z,64.40
2023-05-13T15:55:08.666Z,63.00
2023-05-13T15:57:35.543Z,63.70
2023-05-13T16:00:02.485Z,62.60
2023-05-13T16:02:36.449Z,63.00
2023-05-13T16:05:03.631Z,64.00
2023-05-13T16:07:30.910Z,63.30
2023-05-13T16:09:57.796Z,63.50
2023-05-13T16:12:24.626Z,61.30
2023-05-13T16:14:51.551Z,61.40
2023-05-13T16:17:18.411Z,60.10
2023-05-13T16:19:45.279Z,60.30
2023-05-13T16:22:32.735Z,60.80
2023-05-13T16:25:06.090Z,61.40
2023-05-13T16:27:34.150Z,61.20
2023-05-13T16:30:02.757Z,61.10
2023-05-13T16:32:30.264Z,61.80
2023-05-13T16:34:57.482Z,61.20
2023-05-13T16:37:24.619Z,62.30
2023-05-13T16:39:51.487Z,62.60
2023-05-13T16:42:19.685Z,62.10
2023-05-13T16:44:47.542Z,60.90
2023-05-13T16:47:16.581Z,61.10
2023-05-13T16:49:43.633Z,62.10
2023-05-13T16:52:11.231Z,61.50
2023-05-13T16:54:38.301Z,61.00
2023-05-13T16:57:05.672Z,61.80
2023-05-13T16:59:33.014Z,63.30
2023-05-13T17:02:00.678Z,63.50
2023-05-13T17:04:28.548Z,63.80
2023-05-13T17:06:58.217Z,65.40
2023-05-13T17:09:29.034Z,71.10
2023-05-13T17:11:56.531Z,73.60
2023-05-13T17:14:23.405Z,76.40
2023-05-13T17:16:50.621Z,76.60
2023-05-13T17:19:18.081Z,72.10
2023-05-13T17:21:44.897Z,71.70
2023-05-13T17:24:11.813Z,73.90
2023-05-13T17:26:39.173Z,74.40
2023-05-13T17:29:06.398Z,76.40
2023-05-13T17:31:33.762Z,77.20
2023-05-13T17:34:00.833Z,79.00
2023-05-13T17:36:27.778Z,80.00
2023-05-13T17:38:55.265Z,80.70
2023-05-13T17:41:22.566Z,79.60
2023-05-13T17:43:50.848Z,80.80
2023-05-13T17:46:17.714Z,80.10
2023-05-13T17:48:44.667Z,81.10
2023-05-13T17:51:11.803Z,82.10
2023-05-13T17:53:38.657Z,81.90
2023-05-13T17:56:08.385Z,82.00
2023-05-13T17:58:35.342Z,82.20
2023-05-13T18:01:03.051Z,79.50
2023-05-13T18:03:31.057Z,77.60
2023-05-13T18:05:57.932Z,75.70
2023-05-13T18:08:24.842Z,74.00
2023-05-13T18:10:51.701Z,74.50
2023-05-13T18:13:18.582Z,73.60
2023-05-13T18:15:45.583Z,73.80
2023-05-13T18:18:13.390Z,74.90
2023-05-13T18:20:42.031Z,75.20
2023-05-13T18:23:08.999Z,76.00
2023-05-13T18:25:42.621Z,76.10
2023-05-13T18:28:19.139Z,76.40
2023-05-13T18:30:45.985Z,75.20
2023-05-13T18:33:12.791Z,75.90
2023-05-13T18:35:40.470Z,75.80
2023-05-13T18:38:07.462Z,76.00
2023-05-13T18:40:34.315Z,76.10
2023-05-13T18:43:01.237Z,76.00
2023-05-13T18:45:28.203Z,76.60
2023-05-13T18:47:55.114Z,76.60
2023-05-13T18:50:22.156Z,76.70
2023-05-13T18:52:49.674Z,77.10
2023-05-13T18:55:16.619Z,77.30
2023-05-13T18:57:43.484Z,77.30
2023-05-13T19:00:10.969Z,78.70
2023-05-13T19:02:37.996Z,76.80
2023-05-13T19:05:06.570Z,77.10
2023-05-13T19:07:33.516Z,77.30
2023-05-13T19:10:00.589Z,77.30
2023-05-13T19:12:28.025Z,77.30
2023-05-13T19:14:54.963Z,77.00
2023-05-13T19:17:21.996Z,76.00
2023-05-13T19:19:48.897Z,76.20
2023-05-13T19:22:15.828Z,76.90
2023-05-13T19:24:42.697Z,77.00
2023-05-13T19:27:10.126Z,77.00
2023-05-13T19:29:37.042Z,77.30
2023-05-13T19:32:04.100Z,77.50
2023-05-13T19:34:30.958Z,77.20
2023-05-13T19:36:57.915Z,77.70
2023-05-13T19:39:24.843Z,77.30
2023-05-13T19:41:51.811Z,76.90
2023-05-13T19:44:18.722Z,77.10
2023-05-13T19:46:46.719Z,77.30
2023-05-13T19:49:13.626Z,76.90
2023-05-13T19:51:40.590Z,77.10
2023-05-13T19:54:09.506Z,78.20
2023-05-13T19:56:36.540Z,78.40
2023-05-13T19:59:03.572Z,79.90
2023-05-13T20:01:31.945Z,79.70
2023-05-13T20:03:59.529Z,80.10
2023-05-13T20:06:26.893Z,80.90
2023-05-13T20:08:53.907Z,80.90
2023-05-13T20:11:20.874Z,81.30
2023-05-13T20:13:47.798Z,83.60
2023-05-13T20:16:16.050Z,83.30
2023-05-13T20:18:43.066Z,83.80
2023-05-13T20:21:10.146Z,83.40
2023-05-13T20:23:36.940Z,83.40
2023-05-13T20:26:03.773Z,83.60
2023-05-13T20:28:30.756Z,84.40
2023-05-13T20:30:57.641Z,84.60
2023-05-13T20:33:24.469Z,84.40
2023-05-13T20:35:51.444Z,83.80
2023-05-13T20:38:22.743Z,82.60
2023-05-13T20:40:49.645Z,82.60
2023-05-13T20:43:16.914Z,82.70
2023-05-13T20:45:43.908Z,82.90
2023-05-13T20:48:10.887Z,82.80
2023-05-13T20:50:37.747Z,82.50
2023-05-13T20:53:04.648Z,82.20
2023-05-13T20:55:32.325Z,82.80
2023-05-13T20:57:59.129Z,83.80
2023-05-13T21:00:26.148Z,84.60
2023-05-13T21:02:53.884Z,84.80
2023-05-13T21:05:22.399Z,84.70
2023-05-13T21:07:49.586Z,85.20
2023-05-13T21:10:16.569Z,84.70
2023-05-13T21:12:47.481Z,84.50
2023-05-13T21:15:14.736Z,84.20
2023-05-13T21:17:41.749Z,84.20
2023-05-13T21:20:10.886Z,84.30
2023-05-13T21:22:37.735Z,84.00
2023-05-13T21:25:05.353Z,83.80
2023-05-13T21:27:32.226Z,83.90
2023-05-13T21:29:59.050Z,83.90
2023-05-13T21:32:26.902Z,83.90
2023-05-13T21:34:56.070Z,84.20
2023-05-13T21:37:23.445Z,84.00
2023-05-13T21:39:50.256Z,84.20
2023-05-13T21:42:17.142Z,83.90
2023-05-13T21:44:43.945Z,84.00
2023-05-13T21:47:10.781Z,84.10
2023-05-13T21:49:37.691Z,84.40
2023-05-13T21:52:05.017Z,84.30
2023-05-13T21:54:31.855Z,84.50
2023-05-13T21:56:58.662Z,84.60
2023-05-13T21:59:25.649Z,84.80
2023-05-13T22:01:52.495Z,85.00
2023-05-13T22:04:20.405Z,85.30
2023-05-13T22:06:47.309Z,85.30
2023-05-13T22:09:15.553Z,85.40
2023-05-13T22:11:42.697Z,86.00
2023-05-13T22:14:09.536Z,86.00
2023-05-13T22:16:36.467Z,87.00
2023-05-13T22:19:04.466Z,86.70
2023-05-13T22:21:32.358Z,86.90
2023-05-13T22:23:59.255Z,87.10
2023-05-13T22:26:26.201Z,87.00
2023-05-13T22:28:53.128Z,87.00
2023-05-13T22:31:20.017Z,87.50
2023-05-13T22:33:46.915Z,87.30
2023-05-13T22:36:14.185Z,87.40
2023-05-13T22:38:42.422Z,87.30
2023-05-13T22:41:09.287Z,87.30
2023-05-13T22:43:36.287Z,87.50
2023-05-13T22:46:03.411Z,87.70
2023-05-13T22:48:30.541Z,87.60
2023-05-13T22:50:58.361Z,87.60
2023-05-13T22:53:25.594Z,87.80
2023-05-13T22:55:52.749Z,88.30
2023-05-13T22:58:22.307Z,88.80
2023-05-13T23:00:49.541Z,89.50
2023-05-13T23:03:16.357Z,89.00
2023-05-13T23:05:43.263Z,88.90
2023-05-13T23:08:10.189Z,89.40
2023-05-13T23:10:37.214Z,89.60
2023-05-13T23:13:05.728Z,89.80
2023-05-13T23:15:33.479Z,90.00
2023-05-13T23:18:00.402Z,90.10
2023-05-13T23:20:27.329Z,90.20
2023-05-13T23:22:55.387Z,90.20
2023-05-13T23:25:22.230Z,90.30
2023-05-13T23:27:51.056Z,90.40
2023-05-13T23:30:18.054Z,90.40
2023-05-13T23:32:45.049Z,90.40
2023-05-13T23:35:12.891Z,90.30
2023-05-13T23:37:39.714Z,90.40
2023-05-13T23:40:07.589Z,90.50
2023-05-13T23:42:34.418Z,90.50
2023-05-13T23:45:01.305Z,90.40
2023-05-13T23:47:28.149Z,90.50
2023-05-13T23:49:55.059Z,90.70
2023-05-13T23:52:21.895Z,90.40
2023-05-13T23:54:48.720Z,90.60
2023-05-13T23:57:15.528Z,90.70
2023-05-13T23:59:42.379Z,90.70
